FENCO EGDD-EGSG
Flight info
| Callsign | FENCO |
|---|---|
| Flight time | N/A |
| Altitude | 5000 |
| Route | EGDD/23 DCT BNN DCT EGR DCT EGSG/03R |
| Aircraft | DA62/L-S/L |
Departure
| Time | N/A |
|---|---|
| Airport | EGDD |
Arrival
| Time | 2026-04-25 18:15 |
|---|---|
| Airport | Stapleford Aerodrome (EGSG) |
| Time | Latitude | Longitude | Altitude | Speed | Heading |
|---|---|---|---|---|---|
| 2026-04-25 17:51 | 51.91765 | -1.12519 | 260 ft | 1 kts | 83° |
| 2026-04-25 17:51 | 51.91783 | -1.12435 | 260 ft | 8 kts | 39° |
| 2026-04-25 17:51 | 51.91791 | -1.12463 | 261 ft | 5 kts | 236° |
| 2026-04-25 17:52 | 51.91786 | -1.12476 | 261 ft | 0 kts | 236° |
| 2026-04-25 17:54 | 51.91770 | -1.12517 | 260 ft | 25 kts | 239° |
| 2026-04-25 17:54 | 51.91561 | -1.13091 | 265 ft | 86 kts | 235° |
| 2026-04-25 17:54 | 51.91183 | -1.13923 | 569 ft | 95 kts | 230° |
| 2026-04-25 17:55 | 51.90708 | -1.14681 | 953 ft | 102 kts | 213° |
| 2026-04-25 17:55 | 51.89986 | -1.15030 | 1225 ft | 112 kts | 173° |
| 2026-04-25 17:55 | 51.89193 | -1.14744 | 1495 ft | 121 kts | 159° |
| 2026-04-25 17:55 | 51.88422 | -1.14406 | 1955 ft | 112 kts | 156° |
| 2026-04-25 17:56 | 51.87674 | -1.13992 | 2256 ft | 115 kts | 153° |
| 2026-04-25 17:56 | 51.86933 | -1.13512 | 2577 ft | 115 kts | 151° |
| 2026-04-25 17:56 | 51.86217 | -1.12959 | 3012 ft | 114 kts | 145° |
| 2026-04-25 17:56 | 51.85521 | -1.12322 | 3461 ft | 115 kts | 139° |
| 2026-04-25 17:57 | 51.85188 | -1.11274 | 3907 ft | 107 kts | 91° |
| 2026-04-25 17:57 | 51.84979 | -1.10098 | 4350 ft | 111 kts | 99° |
| 2026-04-25 17:57 | 51.84743 | -1.08912 | 4891 ft | 109 kts | 99° |
| 2026-04-25 17:57 | 51.84577 | -1.08078 | 4997 ft | 126 kts | 98° |
| 2026-04-25 17:58 | 51.84148 | -1.06075 | 5004 ft | 157 kts | 103° |
| 2026-04-25 17:58 | 51.83759 | -1.04312 | 5008 ft | 173 kts | 103° |
| 2026-04-25 17:58 | 51.83338 | -1.02423 | 5000 ft | 183 kts | 105° |
| 2026-04-25 17:58 | 51.82884 | -1.00400 | 4991 ft | 194 kts | 105° |
| 2026-04-25 17:59 | 51.82436 | -0.98379 | 4997 ft | 196 kts | 105° |
| 2026-04-25 17:59 | 51.81974 | -0.96310 | 4989 ft | 195 kts | 105° |
| 2026-04-25 17:59 | 51.81512 | -0.94262 | 5000 ft | 195 kts | 105° |
| 2026-04-25 17:59 | 51.81083 | -0.92339 | 5001 ft | 197 kts | 105° |
| 2026-04-25 18:00 | 51.80615 | -0.90239 | 4989 ft | 200 kts | 105° |
| 2026-04-25 18:00 | 51.80137 | -0.88133 | 5005 ft | 200 kts | 106° |
| 2026-04-25 18:00 | 51.79666 | -0.86021 | 4989 ft | 199 kts | 108° |
| 2026-04-25 18:00 | 51.79167 | -0.83938 | 5000 ft | 200 kts | 108° |
| 2026-04-25 18:01 | 51.78685 | -0.81831 | 4989 ft | 198 kts | 107° |
| 2026-04-25 18:01 | 51.78213 | -0.79746 | 5005 ft | 199 kts | 106° |
| 2026-04-25 18:01 | 51.77745 | -0.77657 | 4991 ft | 196 kts | 107° |
| 2026-04-25 18:01 | 51.77285 | -0.75602 | 5003 ft | 196 kts | 107° |
| 2026-04-25 18:02 | 51.76820 | -0.73541 | 5007 ft | 195 kts | 107° |
| 2026-04-25 18:02 | 51.76356 | -0.71484 | 4993 ft | 193 kts | 107° |
| 2026-04-25 18:02 | 51.75904 | -0.69488 | 5010 ft | 193 kts | 107° |
| 2026-04-25 18:02 | 51.75441 | -0.67441 | 5006 ft | 194 kts | 107° |
| 2026-04-25 18:03 | 51.74975 | -0.65388 | 4997 ft | 193 kts | 107° |
| 2026-04-25 18:03 | 51.74514 | -0.63338 | 5009 ft | 196 kts | 108° |
| 2026-04-25 18:03 | 51.74039 | -0.61255 | 4994 ft | 198 kts | 107° |
| 2026-04-25 18:03 | 51.73564 | -0.59181 | 4996 ft | 197 kts | 107° |
| 2026-04-25 18:04 | 51.73099 | -0.57110 | 4989 ft | 195 kts | 107° |
| 2026-04-25 18:04 | 51.72639 | -0.55063 | 5002 ft | 194 kts | 104° |
| 2026-04-25 18:04 | 51.72346 | -0.52921 | 5006 ft | 196 kts | 98° |
| 2026-04-25 18:04 | 51.72082 | -0.50752 | 4999 ft | 198 kts | 98° |
| 2026-04-25 18:05 | 51.71812 | -0.48562 | 5003 ft | 200 kts | 98° |
| 2026-04-25 18:05 | 51.71532 | -0.46374 | 5001 ft | 199 kts | 99° |
| 2026-04-25 18:05 | 51.71259 | -0.44203 | 5002 ft | 197 kts | 98° |
| 2026-04-25 18:05 | 51.70988 | -0.42010 | 4995 ft | 200 kts | 98° |
| 2026-04-25 18:06 | 51.70712 | -0.39824 | 4991 ft | 197 kts | 98° |
| 2026-04-25 18:06 | 51.70434 | -0.37652 | 5007 ft | 197 kts | 98° |
| 2026-04-25 18:06 | 51.70162 | -0.35494 | 5000 ft | 194 kts | 97° |
| 2026-04-25 18:06 | 51.69892 | -0.33358 | 4998 ft | 195 kts | 99° |
| 2026-04-25 18:07 | 51.69618 | -0.31201 | 5007 ft | 196 kts | 98° |
| 2026-04-25 18:07 | 51.69338 | -0.29039 | 4994 ft | 195 kts | 98° |
| 2026-04-25 18:07 | 51.69074 | -0.26909 | 5011 ft | 195 kts | 98° |
| 2026-04-25 18:07 | 51.68800 | -0.24759 | 4985 ft | 196 kts | 99° |
| 2026-04-25 18:08 | 51.68530 | -0.22645 | 4989 ft | 194 kts | 98° |
| 2026-04-25 18:08 | 51.68258 | -0.20520 | 4992 ft | 193 kts | 98° |
| 2026-04-25 18:08 | 51.67986 | -0.18385 | 4992 ft | 190 kts | 98° |
| 2026-04-25 18:08 | 51.67720 | -0.16309 | 5005 ft | 195 kts | 98° |
| 2026-04-25 18:09 | 51.67440 | -0.14136 | 4997 ft | 195 kts | 98° |
| 2026-04-25 18:09 | 51.67170 | -0.12024 | 4997 ft | 194 kts | 98° |
| 2026-04-25 18:09 | 51.66897 | -0.09910 | 4994 ft | 194 kts | 98° |
| 2026-04-25 18:09 | 51.66712 | -0.08478 | 4995 ft | 192 kts | 98° |
| 2026-04-25 18:10 | 51.66354 | -0.05691 | 4996 ft | 191 kts | 99° |
| 2026-04-25 18:10 | 51.66081 | -0.03592 | 4997 ft | 191 kts | 98° |
| 2026-04-25 18:10 | 51.65809 | -0.01481 | 4996 ft | 193 kts | 99° |
| 2026-04-25 18:10 | 51.65534 | 0.00627 | 4996 ft | 192 kts | 99° |
| 2026-04-25 18:11 | 51.65339 | 0.02744 | 4995 ft | 190 kts | 90° |
| 2026-04-25 18:11 | 51.65264 | 0.04866 | 4995 ft | 189 kts | 90° |
| 2026-04-25 18:11 | 51.65185 | 0.06977 | 4999 ft | 191 kts | 90° |
| 2026-04-25 18:11 | 51.65030 | 0.08861 | 4351 ft | 150 kts | 99° |
| 2026-04-25 18:12 | 51.65219 | 0.10294 | 3927 ft | 133 kts | 48° |
| 2026-04-25 18:12 | 51.66020 | 0.10771 | 3659 ft | 125 kts | 357° |
| 2026-04-25 18:12 | 51.66873 | 0.10080 | 2843 ft | 142 kts | 311° |
| 2026-04-25 18:12 | 51.67058 | 0.08735 | 2458 ft | 126 kts | 252° |
| 2026-04-25 18:13 | 51.66398 | 0.07808 | 2159 ft | 127 kts | 198° |
| 2026-04-25 18:13 | 51.65570 | 0.07867 | 1903 ft | 122 kts | 157° |
| 2026-04-25 18:13 | 51.64899 | 0.08609 | 1555 ft | 115 kts | 128° |
| 2026-04-25 18:14 | 51.64336 | 0.10767 | 1020 ft | 97 kts | 96° |
| 2026-04-25 18:14 | 51.64139 | 0.11778 | 886 ft | 95 kts | 105° |
| 2026-04-25 18:14 | 51.63888 | 0.12772 | 701 ft | 95 kts | 101° |
| 2026-04-25 18:14 | 51.63933 | 0.13759 | 572 ft | 86 kts | 56° |
| 2026-04-25 18:15 | 51.64319 | 0.14487 | 369 ft | 87 kts | 42° |
| 2026-04-25 18:15 | 51.64784 | 0.15094 | 208 ft | 80 kts | 33° |
| 2026-04-25 18:15 | 51.65164 | 0.15503 | 151 ft | 42 kts | 34° |
| 2026-04-25 18:15 | 51.65328 | 0.15681 | 150 ft | 30 kts | 35° |
| 2026-04-25 18:16 | 51.65508 | 0.15891 | 145 ft | 32 kts | 34° |
| 2026-04-25 18:16 | 51.65627 | 0.16012 | 142 ft | 8 kts | 320° |
| 2026-04-25 18:16 | 51.65621 | 0.15852 | 145 ft | 14 kts | 270° |
| 2026-04-25 18:17 | 51.65631 | 0.15713 | 146 ft | 8 kts | 264° |
| 2026-04-25 18:17 | 51.65626 | 0.15690 | 146 ft | 0 kts | 216° |
| 2026-04-25 18:17 | 51.65624 | 0.15689 | 146 ft | 0 kts | 0° |